createdAt,value
2023-02-22T05:16:27.358Z,11.93
2023-02-22T05:19:30.812Z,11.48
2023-02-22T05:22:33.378Z,11.52
2023-02-22T05:25:36.194Z,11.80
2023-02-22T05:28:39.081Z,12.48
2023-02-22T05:31:43.758Z,13.15
2023-02-22T05:34:46.482Z,11.65
2023-02-22T05:37:50.846Z,13.02
2023-02-22T05:40:55.067Z,11.20
2023-02-22T05:43:58.647Z,13.10
2023-02-22T05:47:01.257Z,12.13
2023-02-22T05:50:04.837Z,12.23
2023-02-22T05:53:07.731Z,11.02
2023-02-22T05:56:11.226Z,13.23
2023-02-22T05:59:14.036Z,10.65
2023-02-22T06:02:17.055Z,11.05
2023-02-22T06:05:20.217Z,12.40
2023-02-22T06:08:23.004Z,13.68
2023-02-22T06:11:26.106Z,12.35
2023-02-22T06:14:28.804Z,11.45
2023-02-22T06:17:31.719Z,11.52
2023-02-22T06:20:35.580Z,11.75
2023-02-22T06:23:38.709Z,11.80
2023-02-22T06:26:41.257Z,13.93
2023-02-22T06:29:47.488Z,11.70
2023-02-22T06:32:50.353Z,11.93
2023-02-22T06:35:53.255Z,10.98
2023-02-22T06:38:58.901Z,11.50
2023-02-22T06:42:02.094Z,10.35
2023-02-22T06:45:04.970Z,13.55
2023-02-22T06:48:09.201Z,10.45
2023-02-22T06:51:12.284Z,12.52
2023-02-22T06:54:15.275Z,10.00
2023-02-22T06:57:18.467Z,13.73
2023-02-22T07:00:25.144Z,11.77
2023-02-22T07:03:28.138Z,19.27
2023-02-22T07:06:31.105Z,13.15
2023-02-22T07:09:33.847Z,14.40
2023-02-22T07:12:36.919Z,12.23
2023-02-22T07:15:39.536Z,11.23
2023-02-22T07:18:42.581Z,13.07
2023-02-22T07:21:47.977Z,11.73
2023-02-22T07:24:55.799Z,11.05
2023-02-22T07:27:59.610Z,15.57
2023-02-22T07:31:02.696Z,12.37
2023-02-22T07:34:05.329Z,12.07
2023-02-22T07:37:08.365Z,14.05
2023-02-22T07:40:11.933Z,10.70
2023-02-22T07:43:26.270Z,13.75
2023-02-22T07:46:29.872Z,11.73
2023-02-22T07:49:32.863Z,10.60
2023-02-22T07:52:35.515Z,10.68
2023-02-22T07:55:38.549Z,8.77
2023-02-22T07:58:41.210Z,7.75
2023-02-22T08:01:44.573Z,9.52
2023-02-22T08:04:56.360Z,8.25
2023-02-22T08:07:59.024Z,8.63
2023-02-22T08:11:02.501Z,9.52
2023-02-22T08:14:05.147Z,9.50
2023-02-22T08:17:08.980Z,7.85
2023-02-22T08:20:11.972Z,7.60
2023-02-22T08:23:16.235Z,7.68
2023-02-22T08:26:20.809Z,7.43
2023-02-22T08:29:23.803Z,7.53
2023-02-22T08:32:26.538Z,9.57
2023-02-22T08:35:31.753Z,8.50
2023-02-22T08:38:34.839Z,8.68
2023-02-22T08:41:37.679Z,9.15
2023-02-22T08:44:40.655Z,7.85
2023-02-22T08:47:44.036Z,8.13
2023-02-22T08:50:47.037Z,16.87
2023-02-22T08:53:50.225Z,17.20
2023-02-22T08:56:52.893Z,9.65
2023-02-22T08:59:55.806Z,9.20
2023-02-22T09:03:02.789Z,12.32
2023-02-22T09:06:08.081Z,11.07
2023-02-22T09:09:10.720Z,9.90
2023-02-22T09:12:14.201Z,9.57
2023-02-22T09:15:16.789Z,10.75
2023-02-22T09:18:21.155Z,12.40
2023-02-22T09:21:24.043Z,10.13
2023-02-22T09:24:27.829Z,10.23
2023-02-22T09:27:30.425Z,10.90
2023-02-22T09:30:35.129Z,12.18
2023-02-22T09:33:37.722Z,11.98
2023-02-22T09:36:46.152Z,12.43
2023-02-22T09:39:49.156Z,10.68
2023-02-22T09:43:02.470Z,11.52
2023-02-22T09:46:33.540Z,10.82
2023-02-22T09:49:47.335Z,14.32
2023-02-22T09:53:04.496Z,13.48
2023-02-22T09:56:11.048Z,13.00
2023-02-22T09:59:20.998Z,15.77
2023-02-22T10:02:34.720Z,12.30
2023-02-22T10:05:41.928Z,11.80
2023-02-22T10:08:45.473Z,12.50
2023-02-22T10:12:11.101Z,14.43
2023-02-22T10:15:53.316Z,14.15
2023-02-22T10:19:22.550Z,16.37
2023-02-22T10:22:43.482Z,16.37
2023-02-22T10:25:57.382Z,13.57
2023-02-22T10:29:18.493Z,13.07
2023-02-22T10:32:31.524Z,12.60
2023-02-22T10:35:37.158Z,15.48
2023-02-22T10:38:43.729Z,13.52
2023-02-22T10:41:53.093Z,16.58
2023-02-22T10:44:56.382Z,20.27
2023-02-22T10:48:08.454Z,13.77
2023-02-22T10:51:11.942Z,11.68
2023-02-22T10:54:14.658Z,13.88
2023-02-22T10:57:26.139Z,12.80
2023-02-22T11:00:37.392Z,14.77
2023-02-22T11:03:42.509Z,14.75
2023-02-22T11:06:48.250Z,16.10
2023-02-22T11:09:57.064Z,14.30
2023-02-22T11:13:16.205Z,14.68
2023-02-22T11:16:28.130Z,15.23
2023-02-22T11:19:38.753Z,14.70
2023-02-22T11:22:43.279Z,15.02
2023-02-22T11:26:01.786Z,18.98
2023-02-22T11:29:18.521Z,20.67
2023-02-22T11:32:22.537Z,17.25
2023-02-22T11:35:28.515Z,15.43
2023-02-22T11:38:33.861Z,15.18
2023-02-22T11:41:37.238Z,13.57
2023-02-22T11:44:43.939Z,16.45
2023-02-22T11:47:56.315Z,17.73
2023-02-22T11:51:17.731Z,17.95
2023-02-22T11:54:29.062Z,15.65
2023-02-22T11:57:57.728Z,15.35
2023-02-22T12:01:31.366Z,17.75
2023-02-22T12:04:37.068Z,19.60
2023-02-22T12:07:50.559Z,19.90
2023-02-22T12:11:00.659Z,24.10
2023-02-22T12:14:24.107Z,16.30
2023-02-22T12:18:00.077Z,18.20
2023-02-22T12:21:09.250Z,16.90
2023-02-22T12:24:21.530Z,19.65
2023-02-22T12:27:33.891Z,17.90
2023-02-22T12:30:44.361Z,18.60
2023-02-22T12:34:01.125Z,18.55
2023-02-22T12:37:21.261Z,17.05
2023-02-22T12:40:35.503Z,16.58
2023-02-22T12:44:06.566Z,18.92
2023-02-22T12:47:17.656Z,18.62
2023-02-22T12:50:23.507Z,16.52
2023-02-22T12:53:34.291Z,16.10
2023-02-22T13:00:17.057Z,17.37
2023-02-22T13:03:41.007Z,18.12
2023-02-22T13:06:53.977Z,19.67
2023-02-22T13:10:26.397Z,18.05
2023-02-22T13:13:47.255Z,21.77
2023-02-22T13:17:01.245Z,18.92
2023-02-22T13:20:19.643Z,19.55
2023-02-22T13:23:32.283Z,21.15
2023-02-22T13:26:57.114Z,18.35
2023-02-22T13:30:01.769Z,18.30
2023-02-22T13:33:24.389Z,18.17
2023-02-22T13:36:37.738Z,20.15
2023-02-22T13:39:54.729Z,19.85
2023-02-22T13:43:19.605Z,22.50
2023-02-22T13:46:37.528Z,19.80
2023-02-22T13:49:56.530Z,21.90
2023-02-22T13:53:03.316Z,20.88
2023-02-22T13:56:07.124Z,25.08
2023-02-22T13:59:25.069Z,25.65
2023-02-22T14:02:52.610Z,21.87
2023-02-22T14:05:57.651Z,22.67
2023-02-22T14:09:01.445Z,17.75
2023-02-22T14:12:04.765Z,15.98
2023-02-22T14:15:18.786Z,17.05
2023-02-22T14:18:36.158Z,17.87
2023-02-22T14:22:02.151Z,20.50
2023-02-22T14:25:05.657Z,19.08
2023-02-22T14:28:31.452Z,18.35
2023-02-22T14:31:46.570Z,18.65
2023-02-22T14:35:05.145Z,24.35
2023-02-22T14:38:20.945Z,18.40
2023-02-22T14:41:28.112Z,17.30
2023-02-22T14:44:51.484Z,19.75
2023-02-22T14:48:04.195Z,18.12
2023-02-22T14:51:29.754Z,19.67
2023-02-22T14:54:51.701Z,18.92
2023-02-22T14:58:12.548Z,18.10
2023-02-22T15:01:20.224Z,19.35
2023-02-22T15:04:31.064Z,21.83
2023-02-22T15:07:35.843Z,17.87
2023-02-22T15:10:51.600Z,22.17
2023-02-22T15:13:55.107Z,15.25
2023-02-22T15:17:01.653Z,15.05
2023-02-22T15:20:10.151Z,14.55
2023-02-22T15:23:16.827Z,14.07
2023-02-22T15:26:25.604Z,12.40
2023-02-22T15:29:45.029Z,17.30
2023-02-22T15:33:03.221Z,18.77
2023-02-22T15:36:15.783Z,21.08
2023-02-22T15:39:20.624Z,16.83
2023-02-22T15:42:23.666Z,14.80
2023-02-22T15:45:27.122Z,18.05
2023-02-22T15:48:31.717Z,15.52
2023-02-22T15:51:37.297Z,15.73
2023-02-22T15:54:44.725Z,12.98
2023-02-22T15:57:48.149Z,15.68
2023-02-22T16:01:02.307Z,18.23
2023-02-22T16:04:05.940Z,16.17
2023-02-22T16:07:21.312Z,18.83
2023-02-22T16:10:29.639Z,17.27
2023-02-22T16:13:36.392Z,16.40
2023-02-22T16:16:43.409Z,16.45
2023-02-22T16:19:46.135Z,17.10
